sensor_id;sensor_type;location;lat;lon;timestamp;temperature;humidity
1880;DHT22;49285;49.002;8.390;2023-12-29T00:00:18;11.90;99.90
1880;DHT22;49285;49.002;8.390;2023-12-29T00:02:43;11.90;99.90
1880;DHT22;49285;49.002;8.390;2023-12-29T00:05:09;11.90;99.90
1880;DHT22;49285;49.002;8.390;2023-12-29T00:07:34;11.80;99.90
1880;DHT22;49285;49.002;8.390;2023-12-29T00:10:00;11.70;99.90
1880;DHT22;49285;49.002;8.390;2023-12-29T00:12:25;11.70;99.90
1880;DHT22;49285;49.002;8.390;2023-12-29T00:14:51;11.60;99.90
1880;DHT22;49285;49.002;8.390;2023-12-29T00:17:17;11.60;99.90
1880;DHT22;49285;49.002;8.390;2023-12-29T00:19:42;11.60;99.90
1880;DHT22;49285;49.002;8.390;2023-12-29T00:22:08;11.50;99.90
1880;DHT22;49285;49.002;8.390;2023-12-29T00:24:33;11.50;99.90
1880;DHT22;49285;49.002;8.390;2023-12-29T00:26:59;11.40;99.90
1880;DHT22;49285;49.002;8.390;2023-12-29T00:29:25;11.40;99.90
1880;DHT22;49285;49.002;8.390;2023-12-29T00:31:50;11.40;99.90
1880;DHT22;49285;49.002;8.390;2023-12-29T00:34:16;11.40;99.90
1880;DHT22;49285;49.002;8.390;2023-12-29T00:36:41;11.40;99.90
1880;DHT22;49285;49.002;8.390;2023-12-29T00:39:07;11.40;99.90
1880;DHT22;49285;49.002;8.390;2023-12-29T00:41:32;11.30;99.90
1880;DHT22;49285;49.002;8.390;2023-12-29T00:43:58;11.30;99.90
1880;DHT22;49285;49.002;8.390;2023-12-29T00:46:23;11.30;99.90
1880;DHT22;49285;49.002;8.390;2023-12-29T00:48:49;11.20;99.90
1880;DHT22;49285;49.002;8.390;2023-12-29T00:51:14;11.20;99.90
1880;DHT22;49285;49.002;8.390;2023-12-29T00:53:40;11.30;99.90
1880;DHT22;49285;49.002;8.390;2023-12-29T00:56:12;11.30;99.90
1880;DHT22;49285;49.002;8.390;2023-12-29T00:58:38;11.30;99.90
1880;DHT22;49285;49.002;8.390;2023-12-29T01:01:04;11.40;99.90
1880;DHT22;49285;49.002;8.390;2023-12-29T01:03:30;11.30;99.90
1880;DHT22;49285;49.002;8.390;2023-12-29T01:05:55;11.30;99.90
1880;DHT22;49285;49.002;8.390;2023-12-29T01:08:21;11.30;99.90
1880;DHT22;49285;49.002;8.390;2023-12-29T01:10:46;11.30;99.90
1880;DHT22;49285;49.002;8.390;2023-12-29T01:13:12;11.30;99.90
1880;DHT22;49285;49.002;8.390;2023-12-29T01:15:37;11.20;99.90
1880;DHT22;49285;49.002;8.390;2023-12-29T01:18:05;11.20;99.90
1880;DHT22;49285;49.002;8.390;2023-12-29T01:20:31;11.20;99.90
1880;DHT22;49285;49.002;8.390;2023-12-29T01:22:57;11.20;99.90
1880;DHT22;49285;49.002;8.390;2023-12-29T01:25:22;11.20;99.90
1880;DHT22;49285;49.002;8.390;2023-12-29T01:27:49;11.20;99.90
1880;DHT22;49285;49.002;8.390;2023-12-29T01:30:14;11.20;99.90
1880;DHT22;49285;49.002;8.390;2023-12-29T01:32:40;11.20;99.90
1880;DHT22;49285;49.002;8.390;2023-12-29T01:35:06;11.20;99.90
1880;DHT22;49285;49.002;8.390;2023-12-29T01:37:32;11.20;99.90
1880;DHT22;49285;49.002;8.390;2023-12-29T01:39:57;11.20;99.90
1880;DHT22;49285;49.002;8.390;2023-12-29T01:42:23;11.20;99.90
1880;DHT22;49285;49.002;8.390;2023-12-29T01:44:48;11.20;99.90
1880;DHT22;49285;49.002;8.390;2023-12-29T01:47:20;11.10;99.90
1880;DHT22;49285;49.002;8.390;2023-12-29T01:49:46;11.20;99.90
1880;DHT22;49285;49.002;8.390;2023-12-29T01:52:13;11.20;99.90
1880;DHT22;49285;49.002;8.390;2023-12-29T01:54:39;11.30;99.90
1880;DHT22;49285;49.002;8.390;2023-12-29T01:57:08;11.30;99.90
1880;DHT22;49285;49.002;8.390;2023-12-29T01:59:37;11.30;99.90
1880;DHT22;49285;49.002;8.390;2023-12-29T02:02:04;11.30;99.90
1880;DHT22;49285;49.002;8.390;2023-12-29T02:04:30;11.30;99.90
1880;DHT22;49285;49.002;8.390;2023-12-29T02:06:56;11.30;99.90
1880;DHT22;49285;49.002;8.390;2023-12-29T02:09:22;11.30;99.90
1880;DHT22;49285;49.002;8.390;2023-12-29T02:11:48;11.40;99.90
1880;DHT22;49285;49.002;8.390;2023-12-29T02:14:17;11.30;99.90
1880;DHT22;49285;49.002;8.390;2023-12-29T02:17:09;11.30;99.90
1880;DHT22;49285;49.002;8.390;2023-12-29T02:19:43;11.30;99.90
1880;DHT22;49285;49.002;8.390;2023-12-29T02:22:10;11.20;99.90
1880;DHT22;49285;49.002;8.390;2023-12-29T02:24:37;11.20;99.90
1880;DHT22;49285;49.002;8.390;2023-12-29T02:29:33;11.10;99.90
1880;DHT22;49285;49.002;8.390;2023-12-29T02:32:00;11.20;99.90
1880;DHT22;49285;49.002;8.390;2023-12-29T02:34:29;11.20;99.90
1880;DHT22;49285;49.002;8.390;2023-12-29T02:36:57;11.20;99.90
1880;DHT22;49285;49.002;8.390;2023-12-29T02:39:24;11.20;99.90
1880;DHT22;49285;49.002;8.390;2023-12-29T02:41:49;11.10;99.90
1880;DHT22;49285;49.002;8.390;2023-12-29T02:44:15;11.20;99.90
1880;DHT22;49285;49.002;8.390;2023-12-29T02:46:40;11.20;99.90
1880;DHT22;49285;49.002;8.390;2023-12-29T02:49:06;11.10;99.90
1880;DHT22;49285;49.002;8.390;2023-12-29T02:51:36;11.10;99.90
1880;DHT22;49285;49.002;8.390;2023-12-29T02:54:02;11.10;99.90
1880;DHT22;49285;49.002;8.390;2023-12-29T02:56:28;11.10;99.90
1880;DHT22;49285;49.002;8.390;2023-12-29T02:58:53;11.10;99.90
1880;DHT22;49285;49.002;8.390;2023-12-29T03:01:19;11.10;99.90
1880;DHT22;49285;49.002;8.390;2023-12-29T03:03:44;11.10;99.90
1880;DHT22;49285;49.002;8.390;2023-12-29T03:06:10;11.10;99.90
1880;DHT22;49285;49.002;8.390;2023-12-29T03:08:35;11.10;99.90
1880;DHT22;49285;49.002;8.390;2023-12-29T03:11:01;11.00;99.90
1880;DHT22;49285;49.002;8.390;2023-12-29T03:13:27;11.00;99.90
1880;DHT22;49285;49.002;8.390;2023-12-29T03:15:52;11.00;99.90
1880;DHT22;49285;49.002;8.390;2023-12-29T03:18:18;11.00;99.90
1880;DHT22;49285;49.002;8.390;2023-12-29T03:20:43;11.00;99.90
1880;DHT22;49285;49.002;8.390;2023-12-29T03:23:09;11.00;99.90
1880;DHT22;49285;49.002;8.390;2023-12-29T03:25:35;11.00;99.90
1880;DHT22;49285;49.002;8.390;2023-12-29T03:28:00;11.10;99.90
1880;DHT22;49285;49.002;8.390;2023-12-29T03:30:26;11.10;99.90
1880;DHT22;49285;49.002;8.390;2023-12-29T03:32:51;11.00;99.90
1880;DHT22;49285;49.002;8.390;2023-12-29T03:35:17;11.10;99.90
1880;DHT22;49285;49.002;8.390;2023-12-29T03:37:42;11.00;99.90
1880;DHT22;49285;49.002;8.390;2023-12-29T03:40:08;11.10;99.90
1880;DHT22;49285;49.002;8.390;2023-12-29T03:42:34;11.00;99.90
1880;DHT22;49285;49.002;8.390;2023-12-29T03:45:00;11.00;99.90
1880;DHT22;49285;49.002;8.390;2023-12-29T03:47:26;11.10;99.90
1880;DHT22;49285;49.002;8.390;2023-12-29T03:49:51;11.00;99.90
1880;DHT22;49285;49.002;8.390;2023-12-29T03:52:17;11.00;99.90
1880;DHT22;49285;49.002;8.390;2023-12-29T03:54:42;11.00;99.90
1880;DHT22;49285;49.002;8.390;2023-12-29T03:57:08;11.10;99.90
1880;DHT22;49285;49.002;8.390;2023-12-29T03:59:36;11.10;99.90
1880;DHT22;49285;49.002;8.390;2023-12-29T04:02:03;11.10;99.90
1880;DHT22;49285;49.002;8.390;2023-12-29T04:04:28;11.10;99.90
1880;DHT22;49285;49.002;8.390;2023-12-29T04:06:54;11.00;99.90
1880;DHT22;49285;49.002;8.390;2023-12-29T04:09:19;11.00;99.90
1880;DHT22;49285;49.002;8.390;2023-12-29T04:11:45;11.10;99.90
1880;DHT22;49285;49.002;8.390;2023-12-29T04:14:11;11.10;99.90
1880;DHT22;49285;49.002;8.390;2023-12-29T04:16:38;11.10;99.90
1880;DHT22;49285;49.002;8.390;2023-12-29T04:19:04;11.10;99.90
1880;DHT22;49285;49.002;8.390;2023-12-29T04:21:29;11.10;99.90
1880;DHT22;49285;49.002;8.390;2023-12-29T04:23:55;11.10;99.90
1880;DHT22;49285;49.002;8.390;2023-12-29T04:26:20;11.00;99.90
1880;DHT22;49285;49.002;8.390;2023-12-29T04:28:46;11.10;99.90
1880;DHT22;49285;49.002;8.390;2023-12-29T04:31:11;11.10;99.90
1880;DHT22;49285;49.002;8.390;2023-12-29T04:33:37;11.10;99.90
1880;DHT22;49285;49.002;8.390;2023-12-29T04:36:02;11.20;99.90
1880;DHT22;49285;49.002;8.390;2023-12-29T04:38:28;11.30;99.90
1880;DHT22;49285;49.002;8.390;2023-12-29T04:40:54;11.30;99.90
1880;DHT22;49285;49.002;8.390;2023-12-29T04:43:20;11.30;99.90
1880;DHT22;49285;49.002;8.390;2023-12-29T04:45:45;11.30;99.90
1880;DHT22;49285;49.002;8.390;2023-12-29T04:48:11;11.40;99.90
1880;DHT22;49285;49.002;8.390;2023-12-29T04:50:37;11.40;99.90
1880;DHT22;49285;49.002;8.390;2023-12-29T04:53:03;11.40;99.90
1880;DHT22;49285;49.002;8.390;2023-12-29T04:55:28;11.40;99.90
1880;DHT22;49285;49.002;8.390;2023-12-29T04:57:54;11.40;99.90
1880;DHT22;49285;49.002;8.390;2023-12-29T05:00:19;11.40;99.90
1880;DHT22;49285;49.002;8.390;2023-12-29T05:02:45;11.40;99.90
1880;DHT22;49285;49.002;8.390;2023-12-29T05:05:11;11.40;99.90
1880;DHT22;49285;49.002;8.390;2023-12-29T05:07:36;11.40;99.90
1880;DHT22;49285;49.002;8.390;2023-12-29T05:10:02;11.40;99.90
1880;DHT22;49285;49.002;8.390;2023-12-29T05:12:28;11.40;99.90
1880;DHT22;49285;49.002;8.390;2023-12-29T05:14:53;11.30;99.90
1880;DHT22;49285;49.002;8.390;2023-12-29T05:17:19;11.20;99.90
1880;DHT22;49285;49.002;8.390;2023-12-29T05:19:44;11.20;99.90
1880;DHT22;49285;49.002;8.390;2023-12-29T05:22:10;11.20;99.90
1880;DHT22;49285;49.002;8.390;2023-12-29T05:24:39;11.10;99.90
1880;DHT22;49285;49.002;8.390;2023-12-29T05:27:05;11.10;99.90
1880;DHT22;49285;49.002;8.390;2023-12-29T05:29:30;11.00;99.90
1880;DHT22;49285;49.002;8.390;2023-12-29T05:31:56;11.00;99.90
1880;DHT22;49285;49.002;8.390;2023-12-29T05:34:21;11.00;99.90
1880;DHT22;49285;49.002;8.390;2023-12-29T05:36:47;11.10;99.90
1880;DHT22;49285;49.002;8.390;2023-12-29T05:39:13;11.20;99.90
1880;DHT22;49285;49.002;8.390;2023-12-29T05:41:38;11.10;99.90
1880;DHT22;49285;49.002;8.390;2023-12-29T05:44:04;11.10;99.90
1880;DHT22;49285;49.002;8.390;2023-12-29T05:46:30;11.10;99.90
1880;DHT22;49285;49.002;8.390;2023-12-29T05:48:55;11.10;99.90
1880;DHT22;49285;49.002;8.390;2023-12-29T05:51:21;11.00;99.90
1880;DHT22;49285;49.002;8.390;2023-12-29T05:53:47;11.00;99.90
1880;DHT22;49285;49.002;8.390;2023-12-29T05:56:13;10.90;99.90
1880;DHT22;49285;49.002;8.390;2023-12-29T05:58:42;10.90;99.90
1880;DHT22;49285;49.002;8.390;2023-12-29T06:01:08;10.80;99.90
1880;DHT22;49285;49.002;8.390;2023-12-29T06:03:34;10.80;99.90
1880;DHT22;49285;49.002;8.390;2023-12-29T06:06:00;10.80;99.90
1880;DHT22;49285;49.002;8.390;2023-12-29T06:08:25;10.70;99.90
1880;DHT22;49285;49.002;8.390;2023-12-29T06:10:51;10.70;99.90
1880;DHT22;49285;49.002;8.390;2023-12-29T06:13:17;10.70;99.90
1880;DHT22;49285;49.002;8.390;2023-12-29T06:15:42;10.70;99.90
1880;DHT22;49285;49.002;8.390;2023-12-29T06:18:08;10.70;99.90
1880;DHT22;49285;49.002;8.390;2023-12-29T06:20:33;10.70;99.90
1880;DHT22;49285;49.002;8.390;2023-12-29T06:22:59;10.70;99.90
1880;DHT22;49285;49.002;8.390;2023-12-29T06:25:25;10.60;99.90
1880;DHT22;49285;49.002;8.390;2023-12-29T06:27:50;10.60;99.90
1880;DHT22;49285;49.002;8.390;2023-12-29T06:30:16;10.60;99.90
1880;DHT22;49285;49.002;8.390;2023-12-29T06:32:42;10.70;99.90
1880;DHT22;49285;49.002;8.390;2023-12-29T06:35:08;10.70;99.90
1880;DHT22;49285;49.002;8.390;2023-12-29T06:37:39;10.60;99.90
1880;DHT22;49285;49.002;8.390;2023-12-29T06:40:06;10.70;99.90
1880;DHT22;49285;49.002;8.390;2023-12-29T06:42:32;10.70;99.90
1880;DHT22;49285;49.002;8.390;2023-12-29T06:44:58;10.70;99.90
1880;DHT22;49285;49.002;8.390;2023-12-29T06:47:23;10.70;99.90
1880;DHT22;49285;49.002;8.390;2023-12-29T06:49:49;10.70;99.90
1880;DHT22;49285;49.002;8.390;2023-12-29T06:52:15;10.70;99.90
1880;DHT22;49285;49.002;8.390;2023-12-29T06:54:41;10.70;99.90
1880;DHT22;49285;49.002;8.390;2023-12-29T06:57:07;10.70;99.90
1880;DHT22;49285;49.002;8.390;2023-12-29T06:59:32;10.80;99.90
1880;DHT22;49285;49.002;8.390;2023-12-29T07:01:58;10.80;99.90
1880;DHT22;49285;49.002;8.390;2023-12-29T07:04:23;10.80;99.90
1880;DHT22;49285;49.002;8.390;2023-12-29T07:06:49;10.80;99.90
1880;DHT22;49285;49.002;8.390;2023-12-29T07:09:15;10.90;99.90
1880;DHT22;49285;49.002;8.390;2023-12-29T07:11:40;10.80;99.90
1880;DHT22;49285;49.002;8.390;2023-12-29T07:14:06;10.80;99.90
1880;DHT22;49285;49.002;8.390;2023-12-29T07:16:32;10.90;99.90
1880;DHT22;49285;49.002;8.390;2023-12-29T07:18:57;10.90;99.90
1880;DHT22;49285;49.002;8.390;2023-12-29T07:21:23;10.90;99.90
1880;DHT22;49285;49.002;8.390;2023-12-29T07:23:48;11.00;99.90
1880;DHT22;49285;49.002;8.390;2023-12-29T07:26:14;11.00;99.90
1880;DHT22;49285;49.002;8.390;2023-12-29T07:28:40;11.00;99.90
1880;DHT22;49285;49.002;8.390;2023-12-29T07:31:05;11.00;99.90
1880;DHT22;49285;49.002;8.390;2023-12-29T07:33:31;11.00;99.90
1880;DHT22;49285;49.002;8.390;2023-12-29T07:35:56;11.10;99.90
1880;DHT22;49285;49.002;8.390;2023-12-29T07:38:24;11.10;99.90
1880;DHT22;49285;49.002;8.390;2023-12-29T07:40:49;11.10;99.90
1880;DHT22;49285;49.002;8.390;2023-12-29T07:43:15;11.10;99.90
1880;DHT22;49285;49.002;8.390;2023-12-29T07:45:41;11.20;99.90
1880;DHT22;49285;49.002;8.390;2023-12-29T07:48:08;11.10;99.90
1880;DHT22;49285;49.002;8.390;2023-12-29T07:50:34;11.10;99.90
1880;DHT22;49285;49.002;8.390;2023-12-29T07:53:00;11.10;99.90
1880;DHT22;49285;49.002;8.390;2023-12-29T07:55:31;11.10;99.90
1880;DHT22;49285;49.002;8.390;2023-12-29T07:57:56;11.10;99.90
1880;DHT22;49285;49.002;8.390;2023-12-29T08:00:22;11.10;99.90
1880;DHT22;49285;49.002;8.390;2023-12-29T08:02:48;11.20;99.90
1880;DHT22;49285;49.002;8.390;2023-12-29T08:05:14;11.30;99.90
1880;DHT22;49285;49.002;8.390;2023-12-29T08:07:41;11.30;99.90
1880;DHT22;49285;49.002;8.390;2023-12-29T08:10:07;11.30;99.90
1880;DHT22;49285;49.002;8.390;2023-12-29T08:12:33;11.20;99.90
1880;DHT22;49285;49.002;8.390;2023-12-29T08:14:59;11.30;99.90
1880;DHT22;49285;49.002;8.390;2023-12-29T08:17:25;11.40;99.90
1880;DHT22;49285;49.002;8.390;2023-12-29T08:19:51;11.40;99.90
1880;DHT22;49285;49.002;8.390;2023-12-29T08:22:17;11.40;99.90
1880;DHT22;49285;49.002;8.390;2023-12-29T08:24:42;11.40;99.90
1880;DHT22;49285;49.002;8.390;2023-12-29T08:27:14;11.40;99.90
1880;DHT22;49285;49.002;8.390;2023-12-29T08:29:40;11.50;99.90
1880;DHT22;49285;49.002;8.390;2023-12-29T08:32:08;11.40;99.90
1880;DHT22;49285;49.002;8.390;2023-12-29T08:34:33;11.40;99.90
1880;DHT22;49285;49.002;8.390;2023-12-29T08:37:03;11.40;99.90
1880;DHT22;49285;49.002;8.390;2023-12-29T08:39:29;11.40;99.90
1880;DHT22;49285;49.002;8.390;2023-12-29T08:41:54;11.40;99.90
1880;DHT22;49285;49.002;8.390;2023-12-29T08:44:20;11.40;99.90
1880;DHT22;49285;49.002;8.390;2023-12-29T08:46:45;11.40;99.90
1880;DHT22;49285;49.002;8.390;2023-12-29T08:49:11;11.30;99.90
1880;DHT22;49285;49.002;8.390;2023-12-29T08:51:37;11.30;99.90
1880;DHT22;49285;49.002;8.390;2023-12-29T08:54:02;11.40;99.90
1880;DHT22;49285;49.002;8.390;2023-12-29T08:56:28;11.50;99.90
1880;DHT22;49285;49.002;8.390;2023-12-29T08:58:54;11.50;99.90
1880;DHT22;49285;49.002;8.390;2023-12-29T09:01:20;11.50;99.90
1880;DHT22;49285;49.002;8.390;2023-12-29T09:03:46;11.60;99.90
1880;DHT22;49285;49.002;8.390;2023-12-29T09:06:13;11.60;99.90
1880;DHT22;49285;49.002;8.390;2023-12-29T09:08:39;11.60;99.90
1880;DHT22;49285;49.002;8.390;2023-12-29T09:11:05;11.70;99.90
1880;DHT22;49285;49.002;8.390;2023-12-29T09:13:30;11.70;99.90
1880;DHT22;49285;49.002;8.390;2023-12-29T09:15:58;11.70;99.90
1880;DHT22;49285;49.002;8.390;2023-12-29T09:18:23;11.80;99.90
1880;DHT22;49285;49.002;8.390;2023-12-29T09:20:55;11.90;99.90
1880;DHT22;49285;49.002;8.390;2023-12-29T09:23:20;11.80;99.90
1880;DHT22;49285;49.002;8.390;2023-12-29T09:25:46;11.90;99.90
1880;DHT22;49285;49.002;8.390;2023-12-29T09:28:12;11.90;99.90
1880;DHT22;49285;49.002;8.390;2023-12-29T09:30:37;11.90;99.90
1880;DHT22;49285;49.002;8.390;2023-12-29T09:33:03;12.00;99.90
1880;DHT22;49285;49.002;8.390;2023-12-29T09:35:29;12.00;99.90
1880;DHT22;49285;49.002;8.390;2023-12-29T09:37:54;12.00;99.90
1880;DHT22;49285;49.002;8.390;2023-12-29T09:40:20;12.00;99.90
1880;DHT22;49285;49.002;8.390;2023-12-29T09:42:47;12.00;99.90
1880;DHT22;49285;49.002;8.390;2023-12-29T09:45:14;11.90;99.90
1880;DHT22;49285;49.002;8.390;2023-12-29T09:47:43;11.90;99.90
1880;DHT22;49285;49.002;8.390;2023-12-29T09:50:12;12.00;99.90
1880;DHT22;49285;49.002;8.390;2023-12-29T09:52:42;12.10;99.90
1880;DHT22;49285;49.002;8.390;2023-12-29T09:55:09;12.20;99.90
1880;DHT22;49285;49.002;8.390;2023-12-29T09:57:37;12.20;99.90
1880;DHT22;49285;49.002;8.390;2023-12-29T10:00:03;12.20;99.90
1880;DHT22;49285;49.002;8.390;2023-12-29T10:02:30;12.20;99.90
1880;DHT22;49285;49.002;8.390;2023-12-29T10:04:56;12.30;99.90
1880;DHT22;49285;49.002;8.390;2023-12-29T10:07:25;12.40;99.90
1880;DHT22;49285;49.002;8.390;2023-12-29T10:09:57;12.30;99.90
1880;DHT22;49285;49.002;8.390;2023-12-29T10:12:24;12.40;99.90
1880;DHT22;49285;49.002;8.390;2023-12-29T10:17:36;12.50;99.90
1880;DHT22;49285;49.002;8.390;2023-12-29T10:20:12;12.60;99.90
1880;DHT22;49285;49.002;8.390;2023-12-29T10:25:23;12.60;99.90
1880;DHT22;49285;49.002;8.390;2023-12-29T10:27:49;12.70;99.90
1880;DHT22;49285;49.002;8.390;2023-12-29T10:30:15;12.80;99.90
1880;DHT22;49285;49.002;8.390;2023-12-29T10:32:41;12.90;99.90
1880;DHT22;49285;49.002;8.390;2023-12-29T10:35:11;13.00;99.90
1880;DHT22;49285;49.002;8.390;2023-12-29T10:37:39;13.00;99.90
1880;DHT22;49285;49.002;8.390;2023-12-29T10:40:06;13.00;99.90
1880;DHT22;49285;49.002;8.390;2023-12-29T10:42:32;13.00;99.90
1880;DHT22;49285;49.002;8.390;2023-12-29T10:45:05;13.00;99.90
1880;DHT22;49285;49.002;8.390;2023-12-29T10:47:32;13.00;99.90
1880;DHT22;49285;49.002;8.390;2023-12-29T10:50:02;13.00;99.90
1880;DHT22;49285;49.002;8.390;2023-12-29T10:52:29;13.10;99.90
1880;DHT22;49285;49.002;8.390;2023-12-29T10:55:05;13.10;99.90
1880;DHT22;49285;49.002;8.390;2023-12-29T10:57:31;13.10;99.90
1880;DHT22;49285;49.002;8.390;2023-12-29T10:59:58;13.20;99.90
1880;DHT22;49285;49.002;8.390;2023-12-29T11:02:25;13.30;99.90
1880;DHT22;49285;49.002;8.390;2023-12-29T11:04:52;13.30;99.90
1880;DHT22;49285;49.002;8.390;2023-12-29T11:07:34;13.30;99.90
1880;DHT22;49285;49.002;8.390;2023-12-29T11:10:02;13.30;99.90
1880;DHT22;49285;49.002;8.390;2023-12-29T11:12:34;13.40;99.90
1880;DHT22;49285;49.002;8.390;2023-12-29T11:15:02;13.50;99.90
1880;DHT22;49285;49.002;8.390;2023-12-29T11:17:29;13.60;99.90
1880;DHT22;49285;49.002;8.390;2023-12-29T11:19:55;13.60;99.90
1880;DHT22;49285;49.002;8.390;2023-12-29T11:22:23;13.60;99.90
1880;DHT22;49285;49.002;8.390;2023-12-29T11:24:49;13.60;99.90
1880;DHT22;49285;49.002;8.390;2023-12-29T11:27:16;13.60;99.90
1880;DHT22;49285;49.002;8.390;2023-12-29T11:29:42;13.60;99.90
1880;DHT22;49285;49.002;8.390;2023-12-29T11:32:14;13.60;99.90
1880;DHT22;49285;49.002;8.390;2023-12-29T11:34:46;13.60;99.90
1880;DHT22;49285;49.002;8.390;2023-12-29T11:37:37;13.60;99.90
1880;DHT22;49285;49.002;8.390;2023-12-29T11:40:18;13.60;99.90
1880;DHT22;49285;49.002;8.390;2023-12-29T11:42:45;13.60;99.90
1880;DHT22;49285;49.002;8.390;2023-12-29T11:45:31;13.70;99.90
1880;DHT22;49285;49.002;8.390;2023-12-29T11:48:01;13.70;99.90
1880;DHT22;49285;49.002;8.390;2023-12-29T11:50:35;13.70;99.90
1880;DHT22;49285;49.002;8.390;2023-12-29T11:53:02;13.80;99.90
1880;DHT22;49285;49.002;8.390;2023-12-29T11:55:29;13.70;99.90
1880;DHT22;49285;49.002;8.390;2023-12-29T11:57:56;13.60;99.90
1880;DHT22;49285;49.002;8.390;2023-12-29T12:00:44;13.50;99.90
1880;DHT22;49285;49.002;8.390;2023-12-29T12:03:23;13.70;99.90
1880;DHT22;49285;49.002;8.390;2023-12-29T12:05:50;14.10;99.90
1880;DHT22;49285;49.002;8.390;2023-12-29T12:08:35;14.40;99.90
1880;DHT22;49285;49.002;8.390;2023-12-29T12:13:55;14.30;99.90
1880;DHT22;49285;49.002;8.390;2023-12-29T12:19:12;14.00;99.90
1880;DHT22;49285;49.002;8.390;2023-12-29T12:21:38;13.90;99.90
1880;DHT22;49285;49.002;8.390;2023-12-29T12:24:04;13.80;99.90
1880;DHT22;49285;49.002;8.390;2023-12-29T12:26:33;13.80;99.90
1880;DHT22;49285;49.002;8.390;2023-12-29T12:29:00;13.80;99.90
1880;DHT22;49285;49.002;8.390;2023-12-29T12:31:26;13.70;99.90
1880;DHT22;49285;49.002;8.390;2023-12-29T12:33:55;13.80;99.90
1880;DHT22;49285;49.002;8.390;2023-12-29T12:36:22;13.70;99.90
1880;DHT22;49285;49.002;8.390;2023-12-29T12:38:54;13.60;99.90
1880;DHT22;49285;49.002;8.390;2023-12-29T12:41:26;13.70;99.90
1880;DHT22;49285;49.002;8.390;2023-12-29T12:46:34;13.70;99.90
1880;DHT22;49285;49.002;8.390;2023-12-29T12:49:02;13.70;99.90
1880;DHT22;49285;49.002;8.390;2023-12-29T12:51:28;13.70;99.90
1880;DHT22;49285;49.002;8.390;2023-12-29T12:53:54;13.80;99.90
1880;DHT22;49285;49.002;8.390;2023-12-29T12:56:19;13.80;99.90
1880;DHT22;49285;49.002;8.390;2023-12-29T12:58:46;13.80;99.90
1880;DHT22;49285;49.002;8.390;2023-12-29T13:01:12;13.90;99.90
1880;DHT22;49285;49.002;8.390;2023-12-29T13:03:38;14.00;99.90
1880;DHT22;49285;49.002;8.390;2023-12-29T13:06:05;14.00;99.90
1880;DHT22;49285;49.002;8.390;2023-12-29T13:08:32;13.90;99.90
1880;DHT22;49285;49.002;8.390;2023-12-29T13:10:58;13.80;99.90
1880;DHT22;49285;49.002;8.390;2023-12-29T13:13:39;13.80;99.90
1880;DHT22;49285;49.002;8.390;2023-12-29T13:16:04;14.00;99.90
1880;DHT22;49285;49.002;8.390;2023-12-29T13:18:30;14.30;99.90
1880;DHT22;49285;49.002;8.390;2023-12-29T13:20:57;14.40;99.90
1880;DHT22;49285;49.002;8.390;2023-12-29T13:23:26;14.60;99.90
1880;DHT22;49285;49.002;8.390;2023-12-29T13:25:54;14.60;99.90
1880;DHT22;49285;49.002;8.390;2023-12-29T13:28:20;14.50;99.90
1880;DHT22;49285;49.002;8.390;2023-12-29T13:30:46;14.50;99.90
1880;DHT22;49285;49.002;8.390;2023-12-29T13:33:19;14.50;99.90
1880;DHT22;49285;49.002;8.390;2023-12-29T13:35:55;14.30;99.90
1880;DHT22;49285;49.002;8.390;2023-12-29T13:38:26;14.30;99.90
1880;DHT22;49285;49.002;8.390;2023-12-29T13:41:02;14.30;99.90
1880;DHT22;49285;49.002;8.390;2023-12-29T13:43:31;14.30;99.90
1880;DHT22;49285;49.002;8.390;2023-12-29T13:45:58;14.30;99.90
1880;DHT22;49285;49.002;8.390;2023-12-29T13:48:24;14.30;99.90
1880;DHT22;49285;49.002;8.390;2023-12-29T13:50:50;14.30;99.90
1880;DHT22;49285;49.002;8.390;2023-12-29T13:53:20;14.20;99.90
1880;DHT22;49285;49.002;8.390;2023-12-29T13:55:46;14.20;99.90
1880;DHT22;49285;49.002;8.390;2023-12-29T13:58:12;14.10;99.90
1880;DHT22;49285;49.002;8.390;2023-12-29T14:00:43;14.10;99.90
1880;DHT22;49285;49.002;8.390;2023-12-29T14:03:43;14.10;99.90
1880;DHT22;49285;49.002;8.390;2023-12-29T14:06:12;14.20;99.90
1880;DHT22;49285;49.002;8.390;2023-12-29T14:08:47;14.20;99.90
1880;DHT22;49285;49.002;8.390;2023-12-29T14:11:13;14.00;99.90
1880;DHT22;49285;49.002;8.390;2023-12-29T14:13:43;14.00;99.90
1880;DHT22;49285;49.002;8.390;2023-12-29T14:16:09;14.10;99.90
1880;DHT22;49285;49.002;8.390;2023-12-29T14:24:07;13.90;99.90
1880;DHT22;49285;49.002;8.390;2023-12-29T14:27:03;13.90;99.90
1880;DHT22;49285;49.002;8.390;2023-12-29T14:29:28;13.80;99.90
1880;DHT22;49285;49.002;8.390;2023-12-29T14:31:54;13.70;99.90
1880;DHT22;49285;49.002;8.390;2023-12-29T14:34:22;13.80;99.90
1880;DHT22;49285;49.002;8.390;2023-12-29T14:36:47;13.70;99.90
1880;DHT22;49285;49.002;8.390;2023-12-29T14:39:13;13.60;99.90
1880;DHT22;49285;49.002;8.390;2023-12-29T14:41:40;13.50;99.90
1880;DHT22;49285;49.002;8.390;2023-12-29T14:44:06;13.50;99.90
1880;DHT22;49285;49.002;8.390;2023-12-29T14:46:32;13.50;99.90
1880;DHT22;49285;49.002;8.390;2023-12-29T14:49:02;13.40;99.90
1880;DHT22;49285;49.002;8.390;2023-12-29T14:51:28;13.30;99.90
1880;DHT22;49285;49.002;8.390;2023-12-29T14:53:53;13.30;99.90
1880;DHT22;49285;49.002;8.390;2023-12-29T14:56:19;13.30;99.90
1880;DHT22;49285;49.002;8.390;2023-12-29T14:58:44;13.30;99.90
1880;DHT22;49285;49.002;8.390;2023-12-29T15:01:11;13.30;99.90
1880;DHT22;49285;49.002;8.390;2023-12-29T15:03:37;13.30;99.90
1880;DHT22;49285;49.002;8.390;2023-12-29T15:06:03;13.30;99.90
1880;DHT22;49285;49.002;8.390;2023-12-29T15:08:29;13.30;99.90
1880;DHT22;49285;49.002;8.390;2023-12-29T15:11:03;13.30;99.90
1880;DHT22;49285;49.002;8.390;2023-12-29T15:13:29;13.10;99.90
1880;DHT22;49285;49.002;8.390;2023-12-29T15:15:57;13.00;99.90
1880;DHT22;49285;49.002;8.390;2023-12-29T15:18:24;13.10;99.90
1880;DHT22;49285;49.002;8.390;2023-12-29T15:20:50;13.10;99.90
1880;DHT22;49285;49.002;8.390;2023-12-29T15:23:16;13.00;99.90
1880;DHT22;49285;49.002;8.390;2023-12-29T15:25:42;13.00;99.90
1880;DHT22;49285;49.002;8.390;2023-12-29T15:28:08;13.00;99.90
1880;DHT22;49285;49.002;8.390;2023-12-29T15:30:33;13.00;99.90
1880;DHT22;49285;49.002;8.390;2023-12-29T15:32:59;13.00;99.90
1880;DHT22;49285;49.002;8.390;2023-12-29T15:35:24;13.00;99.90
1880;DHT22;49285;49.002;8.390;2023-12-29T15:37:50;13.10;99.90
1880;DHT22;49285;49.002;8.390;2023-12-29T15:40:16;13.10;99.90
1880;DHT22;49285;49.002;8.390;2023-12-29T15:42:41;13.10;99.90
1880;DHT22;49285;49.002;8.390;2023-12-29T15:45:07;13.10;99.90
1880;DHT22;49285;49.002;8.390;2023-12-29T15:47:33;13.00;99.90
1880;DHT22;49285;49.002;8.390;2023-12-29T15:49:59;13.00;99.90
1880;DHT22;49285;49.002;8.390;2023-12-29T15:52:24;13.00;99.90
1880;DHT22;49285;49.002;8.390;2023-12-29T15:54:52;12.90;99.90
1880;DHT22;49285;49.002;8.390;2023-12-29T15:57:18;13.00;99.90
1880;DHT22;49285;49.002;8.390;2023-12-29T15:59:43;13.00;99.90
1880;DHT22;49285;49.002;8.390;2023-12-29T16:02:10;12.90;99.90
1880;DHT22;49285;49.002;8.390;2023-12-29T16:04:36;12.90;99.90